sensor_id;sensor_type;location;lat;lon;timestamp;pressure;altitude;pressure_sealevel;temperature;humidity
64158;BME280;50449;51.528;5.076;2023-07-29T00:00:41;100631.44;;;24.39;50.98
64158;BME280;50449;51.528;5.076;2023-07-29T00:03:06;100630.19;;;24.37;50.54
64158;BME280;50449;51.528;5.076;2023-07-29T00:05:32;100619.47;;;24.35;50.71
64158;BME280;50449;51.528;5.076;2023-07-29T00:07:57;100626.13;;;24.34;50.91
64158;BME280;50449;51.528;5.076;2023-07-29T00:10:22;100634.75;;;24.33;50.51
64158;BME280;50449;51.528;5.076;2023-07-29T00:12:48;100631.50;;;24.31;50.70
64158;BME280;50449;51.528;5.076;2023-07-29T00:15:13;100624.72;;;24.28;50.81
64158;BME280;50449;51.528;5.076;2023-07-29T00:17:39;100627.00;;;24.26;50.87
64158;BME280;50449;51.528;5.076;2023-07-29T00:20:07;100625.41;;;24.25;50.68
64158;BME280;50449;51.528;5.076;2023-07-29T00:22:32;100619.06;;;24.25;50.72
64158;BME280;50449;51.528;5.076;2023-07-29T00:24:58;100622.50;;;24.22;50.79
64158;BME280;50449;51.528;5.076;2023-07-29T00:27:25;100619.72;;;24.22;50.57
64158;BME280;50449;51.528;5.076;2023-07-29T00:29:50;100614.09;;;24.18;50.61
64158;BME280;50449;51.528;5.076;2023-07-29T00:32:16;100611.66;;;24.16;51.23
64158;BME280;50449;51.528;5.076;2023-07-29T00:34:41;100612.81;;;24.15;50.88
64158;BME280;50449;51.528;5.076;2023-07-29T00:37:07;100610.38;;;24.14;51.02
64158;BME280;50449;51.528;5.076;2023-07-29T00:39:32;100606.34;;;24.11;50.96
64158;BME280;50449;51.528;5.076;2023-07-29T00:41:58;100599.22;;;24.10;51.15
64158;BME280;50449;51.528;5.076;2023-07-29T00:44:23;100603.94;;;24.10;50.93
64158;BME280;50449;51.528;5.076;2023-07-29T00:46:52;100602.66;;;24.07;50.84
64158;BME280;50449;51.528;5.076;2023-07-29T00:49:19;100602.19;;;24.05;50.95
64158;BME280;50449;51.528;5.076;2023-07-29T00:51:46;100601.72;;;24.03;50.94
64158;BME280;50449;51.528;5.076;2023-07-29T00:54:11;100612.75;;;24.03;50.71
64158;BME280;50449;51.528;5.076;2023-07-29T00:56:37;100609.50;;;24.01;50.86
64158;BME280;50449;51.528;5.076;2023-07-29T00:59:03;100607.13;;;24.00;51.02
64158;BME280;50449;51.528;5.076;2023-07-29T01:01:30;100610.19;;;23.98;51.01
64158;BME280;50449;51.528;5.076;2023-07-29T01:03:55;100598.34;;;23.97;51.24
64158;BME280;50449;51.528;5.076;2023-07-29T01:06:34;100606.97;;;23.96;51.06
64158;BME280;50449;51.528;5.076;2023-07-29T01:09:13;100614.78;;;23.94;51.17
64158;BME280;50449;51.528;5.076;2023-07-29T01:12:16;100621.44;;;23.93;50.84
64158;BME280;50449;51.528;5.076;2023-07-29T01:17:36;100616.13;;;23.88;51.10
64158;BME280;50449;51.528;5.076;2023-07-29T01:20:24;100612.06;;;23.85;50.93
64158;BME280;50449;51.528;5.076;2023-07-29T01:22:50;100616.00;;;23.84;50.95
64158;BME280;50449;51.528;5.076;2023-07-29T01:25:16;100610.78;;;23.83;51.40
64158;BME280;50449;51.528;5.076;2023-07-29T01:27:46;100613.56;;;23.83;51.07
64158;BME280;50449;51.528;5.076;2023-07-29T01:30:11;100613.09;;;23.81;50.89
64158;BME280;50449;51.528;5.076;2023-07-29T01:32:42;100615.34;;;23.79;51.25
64158;BME280;50449;51.528;5.076;2023-07-29T01:35:28;100613.75;;;23.78;51.37
64158;BME280;50449;51.528;5.076;2023-07-29T01:37:59;100608.56;;;23.76;51.41
64158;BME280;50449;51.528;5.076;2023-07-29T01:40:27;100617.19;;;23.74;50.88
64158;BME280;50449;51.528;5.076;2023-07-29T01:42:53;100607.59;;;23.72;51.16
64158;BME280;50449;51.528;5.076;2023-07-29T01:45:23;100612.31;;;23.71;51.33
64158;BME280;50449;51.528;5.076;2023-07-29T01:47:49;100603.56;;;23.69;51.21
64158;BME280;50449;51.528;5.076;2023-07-29T01:50:15;100607.44;;;23.68;51.20
64158;BME280;50449;51.528;5.076;2023-07-29T01:52:40;100603.09;;;23.67;50.83
64158;BME280;50449;51.528;5.076;2023-07-29T01:55:06;100599.53;;;23.67;51.18
64158;BME280;50449;51.528;5.076;2023-07-29T01:57:31;100598.25;;;23.64;51.30
64158;BME280;50449;51.528;5.076;2023-07-29T01:59:57;100590.78;;;23.65;50.98
64158;BME280;50449;51.528;5.076;2023-07-29T02:02:22;100592.25;;;23.62;50.92
64158;BME280;50449;51.528;5.076;2023-07-29T02:04:47;100589.50;;;23.62;50.96
64158;BME280;50449;51.528;5.076;2023-07-29T02:07:17;100585.13;;;23.61;51.13
64158;BME280;50449;51.528;5.076;2023-07-29T02:09:43;100573.63;;;23.59;50.83
64158;BME280;50449;51.528;5.076;2023-07-29T02:12:08;100586.63;;;23.59;50.96
64158;BME280;50449;51.528;5.076;2023-07-29T02:14:34;100577.88;;;23.57;51.10
64158;BME280;50449;51.528;5.076;2023-07-29T02:16:59;100570.41;;;23.57;50.87
64158;BME280;50449;51.528;5.076;2023-07-29T02:19:24;100571.88;;;23.54;51.07
64158;BME280;50449;51.528;5.076;2023-07-29T02:21:50;100578.50;;;23.53;51.29
64158;BME280;50449;51.528;5.076;2023-07-29T02:24:15;100586.34;;;23.51;51.28
64158;BME280;50449;51.528;5.076;2023-07-29T02:26:41;100581.94;;;23.50;50.89
64158;BME280;50449;51.528;5.076;2023-07-29T02:29:07;100580.34;;;23.49;51.16
64158;BME280;50449;51.528;5.076;2023-07-29T02:31:32;100571.25;;;23.49;51.28
64158;BME280;50449;51.528;5.076;2023-07-29T02:33:59;100573.88;;;23.45;50.75
64158;BME280;50449;51.528;5.076;2023-07-29T02:36:25;100568.72;;;23.44;51.25
64158;BME280;50449;51.528;5.076;2023-07-29T02:38:50;100570.63;;;23.43;51.15
64158;BME280;50449;51.528;5.076;2023-07-29T02:41:16;100577.28;;;23.42;50.67
64158;BME280;50449;51.528;5.076;2023-07-29T02:43:48;100584.28;;;23.40;51.37
64158;BME280;50449;51.528;5.076;2023-07-29T02:46:14;100572.47;;;23.39;50.98
64158;BME280;50449;51.528;5.076;2023-07-29T02:48:39;100581.03;;;23.38;50.97
64158;BME280;50449;51.528;5.076;2023-07-29T02:51:04;100580.56;;;23.36;50.70
64158;BME280;50449;51.528;5.076;2023-07-29T02:53:30;100582.53;;;23.35;50.99
64158;BME280;50449;51.528;5.076;2023-07-29T02:55:55;100580.13;;;23.33;51.24
64158;BME280;50449;51.528;5.076;2023-07-29T02:58:21;100578.47;;;23.32;50.73
64158;BME280;50449;51.528;5.076;2023-07-29T03:00:46;100573.66;;;23.29;51.01
64158;BME280;50449;51.528;5.076;2023-07-29T03:03:14;100566.53;;;23.28;51.02
64158;BME280;50449;51.528;5.076;2023-07-29T03:05:39;100566.03;;;23.26;50.84
64158;BME280;50449;51.528;5.076;2023-07-29T03:08:04;100572.69;;;23.25;51.25
64158;BME280;50449;51.528;5.076;2023-07-29T03:10:30;100571.06;;;23.24;50.92
64158;BME280;50449;51.528;5.076;2023-07-29T03:12:55;100572.56;;;23.22;50.80
64158;BME280;50449;51.528;5.076;2023-07-29T03:15:25;100586.66;;;23.20;51.31
64158;BME280;50449;51.528;5.076;2023-07-29T03:17:51;100593.31;;;23.19;51.04
64158;BME280;50449;51.528;5.076;2023-07-29T03:20:16;100576.28;;;23.17;51.17
64158;BME280;50449;51.528;5.076;2023-07-29T03:22:43;100582.97;;;23.16;51.27
64158;BME280;50449;51.528;5.076;2023-07-29T03:25:09;100588.00;;;23.14;51.06
64158;BME280;50449;51.528;5.076;2023-07-29T03:27:34;100589.09;;;23.13;50.76
64158;BME280;50449;51.528;5.076;2023-07-29T03:30:05;100587.50;;;23.12;51.04
64158;BME280;50449;51.528;5.076;2023-07-29T03:32:30;100585.06;;;23.10;50.74
64158;BME280;50449;51.528;5.076;2023-07-29T03:34:56;100583.47;;;23.09;51.08
64158;BME280;50449;51.528;5.076;2023-07-29T03:37:21;100577.47;;;23.07;51.29
64158;BME280;50449;51.528;5.076;2023-07-29T03:39:47;100578.63;;;23.06;50.78
64158;BME280;50449;51.528;5.076;2023-07-29T03:42:12;100577.34;;;23.04;50.85
64158;BME280;50449;51.528;5.076;2023-07-29T03:44:38;100561.94;;;23.03;50.68
64158;BME280;50449;51.528;5.076;2023-07-29T03:47:05;100560.31;;;23.02;51.12
64158;BME280;50449;51.528;5.076;2023-07-29T03:49:31;100546.88;;;23.00;50.90
64158;BME280;50449;51.528;5.076;2023-07-29T03:51:56;100550.78;;;22.99;51.20
64158;BME280;50449;51.528;5.076;2023-07-29T03:54:22;100535.69;;;22.97;50.70
64158;BME280;50449;51.528;5.076;2023-07-29T03:56:47;100541.19;;;22.97;50.95
64158;BME280;50449;51.528;5.076;2023-07-29T03:59:12;100533.59;;;22.94;50.93
64158;BME280;50449;51.528;5.076;2023-07-29T04:01:38;100535.56;;;22.93;50.91
64158;BME280;50449;51.528;5.076;2023-07-29T04:04:03;100541.38;;;22.92;51.17
64158;BME280;50449;51.528;5.076;2023-07-29T04:06:29;100551.91;;;22.89;51.11
64158;BME280;50449;51.528;5.076;2023-07-29T04:08:54;100556.94;;;22.87;51.20
64158;BME280;50449;51.528;5.076;2023-07-29T04:11:20;100566.34;;;22.86;51.32
64158;BME280;50449;51.528;5.076;2023-07-29T04:13:46;100570.22;;;22.85;51.02
64158;BME280;50449;51.528;5.076;2023-07-29T04:16:11;100580.78;;;22.83;51.33
64158;BME280;50449;51.528;5.076;2023-07-29T04:18:36;100599.25;;;22.83;51.33
64158;BME280;50449;51.528;5.076;2023-07-29T04:21:02;100589.69;;;22.80;51.33
64158;BME280;50449;51.528;5.076;2023-07-29T04:23:27;100584.53;;;22.79;51.06
64158;BME280;50449;51.528;5.076;2023-07-29T04:25:52;100571.88;;;22.78;51.41
64158;BME280;50449;51.528;5.076;2023-07-29T04:28:18;100583.25;;;22.76;51.28
64158;BME280;50449;51.528;5.076;2023-07-29T04:30:43;100585.50;;;22.74;50.80
64158;BME280;50449;51.528;5.076;2023-07-29T04:33:09;100587.47;;;22.74;51.27
64158;BME280;50449;51.528;5.076;2023-07-29T04:35:34;100584.22;;;22.72;50.97
64158;BME280;50449;51.528;5.076;2023-07-29T04:37:59;100590.03;;;22.70;50.81
64158;BME280;50449;51.528;5.076;2023-07-29T04:40:25;100587.28;;;22.70;50.88
64158;BME280;50449;51.528;5.076;2023-07-29T04:42:51;100595.91;;;22.68;51.12
64158;BME280;50449;51.528;5.076;2023-07-29T04:45:16;100598.97;;;22.67;51.03
64158;BME280;50449;51.528;5.076;2023-07-29T04:47:42;100591.84;;;22.66;50.66
64158;BME280;50449;51.528;5.076;2023-07-29T04:50:08;100587.47;;;22.65;51.07
64158;BME280;50449;51.528;5.076;2023-07-29T04:52:34;100596.06;;;22.63;51.16
64158;BME280;50449;51.528;5.076;2023-07-29T04:54:59;100599.16;;;22.62;51.26
64158;BME280;50449;51.528;5.076;2023-07-29T04:57:24;100599.50;;;22.60;50.75
64158;BME280;50449;51.528;5.076;2023-07-29T04:59:50;100598.66;;;22.60;50.82
64158;BME280;50449;51.528;5.076;2023-07-29T05:02:15;100607.25;;;22.58;50.84
64158;BME280;50449;51.528;5.076;2023-07-29T05:04:41;100606.78;;;22.56;50.64
64158;BME280;50449;51.528;5.076;2023-07-29T05:07:06;100603.22;;;22.56;51.05
64158;BME280;50449;51.528;5.076;2023-07-29T05:09:31;100607.09;;;22.55;51.18
64158;BME280;50449;51.528;5.076;2023-07-29T05:11:57;100610.19;;;22.53;51.37
64158;BME280;50449;51.528;5.076;2023-07-29T05:14:22;100611.31;;;22.52;50.95
64158;BME280;50449;51.528;5.076;2023-07-29T05:16:48;100600.63;;;22.51;50.94
64158;BME280;50449;51.528;5.076;2023-07-29T05:19:13;100610.81;;;22.50;50.93
64158;BME280;50449;51.528;5.076;2023-07-29T05:21:39;100604.84;;;22.48;50.93
64158;BME280;50449;51.528;5.076;2023-07-29T05:24:04;100599.66;;;22.46;50.88
64158;BME280;50449;51.528;5.076;2023-07-29T05:26:30;100599.66;;;22.46;50.99
64158;BME280;50449;51.528;5.076;2023-07-29T05:28:55;100596.41;;;22.44;51.41
64158;BME280;50449;51.528;5.076;2023-07-29T05:31:22;100594.81;;;22.43;50.89
64158;BME280;50449;51.528;5.076;2023-07-29T05:33:47;100601.44;;;22.42;50.91
64158;BME280;50449;51.528;5.076;2023-07-29T05:36:12;100602.59;;;22.41;50.97
64158;BME280;50449;51.528;5.076;2023-07-29T05:38:38;100603.72;;;22.40;51.32
64158;BME280;50449;51.528;5.076;2023-07-29T05:41:03;100601.28;;;22.39;50.91
64158;BME280;50449;51.528;5.076;2023-07-29T05:43:29;100604.03;;;22.39;51.21
64158;BME280;50449;51.528;5.076;2023-07-29T05:45:54;100611.50;;;22.38;51.00
64158;BME280;50449;51.528;5.076;2023-07-29T05:48:20;100600.81;;;22.37;51.33
64158;BME280;50449;51.528;5.076;2023-07-29T05:50:45;100606.66;;;22.35;51.63
64158;BME280;50449;51.528;5.076;2023-07-29T05:53:11;100609.41;;;22.35;51.33
64158;BME280;50449;51.528;5.076;2023-07-29T05:55:36;100600.31;;;22.35;50.92
64158;BME280;50449;51.528;5.076;2023-07-29T05:58:02;100594.34;;;22.33;51.10
64158;BME280;50449;51.528;5.076;2023-07-29T06:00:27;100608.91;;;22.33;51.55
64158;BME280;50449;51.528;5.076;2023-07-29T06:02:52;100601.78;;;22.32;51.15
64158;BME280;50449;51.528;5.076;2023-07-29T06:05:18;100601.31;;;22.30;50.94
64158;BME280;50449;51.528;5.076;2023-07-29T06:07:43;100605.69;;;22.31;51.24
64158;BME280;50449;51.528;5.076;2023-07-29T06:10:12;100602.44;;;22.29;51.23
64158;BME280;50449;51.528;5.076;2023-07-29T06:12:38;100599.69;;;22.29;51.13
64158;BME280;50449;51.528;5.076;2023-07-29T06:15:04;100603.56;;;22.28;51.07
64158;BME280;50449;51.528;5.076;2023-07-29T06:17:30;100606.34;;;22.28;51.28
64158;BME280;50449;51.528;5.076;2023-07-29T06:19:55;100607.44;;;22.27;51.38
64158;BME280;50449;51.528;5.076;2023-07-29T06:22:20;100606.66;;;22.27;51.70
64158;BME280;50449;51.528;5.076;2023-07-29T06:24:46;100606.66;;;22.27;51.36
64158;BME280;50449;51.528;5.076;2023-07-29T06:27:11;100610.53;;;22.25;51.14
64158;BME280;50449;51.528;5.076;2023-07-29T06:29:37;100605.84;;;22.26;51.17
64158;BME280;50449;51.528;5.076;2023-07-29T06:32:02;100605.84;;;22.26;51.29
64158;BME280;50449;51.528;5.076;2023-07-29T06:34:28;100606.97;;;22.25;51.15
64158;BME280;50449;51.528;5.076;2023-07-29T06:36:53;100599.53;;;22.25;51.17
64158;BME280;50449;51.528;5.076;2023-07-29T06:39:19;100604.22;;;22.25;51.45
64158;BME280;50449;51.528;5.076;2023-07-29T06:41:44;100605.03;;;22.25;51.46
64158;BME280;50449;51.528;5.076;2023-07-29T06:44:09;100610.53;;;22.25;51.64
64158;BME280;50449;51.528;5.076;2023-07-29T06:46:35;100612.16;;;22.27;51.60
64158;BME280;50449;51.528;5.076;2023-07-29T06:49:00;100605.84;;;22.26;51.74
64158;BME280;50449;51.528;5.076;2023-07-29T06:51:25;100618.44;;;22.27;51.78
64158;BME280;50449;51.528;5.076;2023-07-29T06:53:51;100615.69;;;22.27;51.40
64158;BME280;50449;51.528;5.076;2023-07-29T06:56:17;100621.69;;;22.29;51.40
64158;BME280;50449;51.528;5.076;2023-07-29T06:58:43;100621.38;;;22.31;51.48
64158;BME280;50449;51.528;5.076;2023-07-29T07:01:08;100618.63;;;22.31;51.42
64158;BME280;50449;51.528;5.076;2023-07-29T07:03:33;100613.63;;;22.33;51.42
64158;BME280;50449;51.528;5.076;2023-07-29T07:05:59;100626.22;;;22.34;51.64
64158;BME280;50449;51.528;5.076;2023-07-29T07:08:24;100622.34;;;22.35;51.77
64158;BME280;50449;51.528;5.076;2023-07-29T07:10:49;100627.53;;;22.36;52.03
64158;BME280;50449;51.528;5.076;2023-07-29T07:13:15;100626.38;;;22.37;51.45
64158;BME280;50449;51.528;5.076;2023-07-29T07:15:40;100616.19;;;22.38;51.64
64158;BME280;50449;51.528;5.076;2023-07-29T07:18:06;100620.56;;;22.39;51.93
64158;BME280;50449;51.528;5.076;2023-07-29T07:20:31;100622.16;;;22.40;51.70
64158;BME280;50449;51.528;5.076;2023-07-29T07:22:57;100623.44;;;22.42;51.42
64158;BME280;50449;51.528;5.076;2023-07-29T07:25:22;100627.84;;;22.43;51.78
64158;BME280;50449;51.528;5.076;2023-07-29T07:27:48;100633.84;;;22.45;52.00
64158;BME280;50449;51.528;5.076;2023-07-29T07:30:14;100640.94;;;22.46;51.54
64158;BME280;50449;51.528;5.076;2023-07-29T07:32:39;100648.06;;;22.47;52.09
64158;BME280;50449;51.528;5.076;2023-07-29T07:35:05;100647.44;;;22.51;51.83
64158;BME280;50449;51.528;5.076;2023-07-29T07:37:30;100645.47;;;22.51;52.20
64158;BME280;50449;51.528;5.076;2023-07-29T07:39:56;100643.22;;;22.53;52.32
64158;BME280;50449;51.528;5.076;2023-07-29T07:42:21;100644.50;;;22.56;52.04
64158;BME280;50449;51.528;5.076;2023-07-29T07:44:47;100657.13;;;22.57;52.45
64158;BME280;50449;51.528;5.076;2023-07-29T07:47:12;100641.91;;;22.59;52.22
64158;BME280;50449;51.528;5.076;2023-07-29T07:49:38;100648.69;;;22.62;52.09
64158;BME280;50449;51.528;5.076;2023-07-29T07:52:03;100658.25;;;22.64;51.92
64158;BME280;50449;51.528;5.076;2023-07-29T07:54:29;100648.88;;;22.65;52.36
64158;BME280;50449;51.528;5.076;2023-07-29T07:56:54;100656.47;;;22.68;51.93
64158;BME280;50449;51.528;5.076;2023-07-29T07:59:19;100650.63;;;22.70;52.09
64158;BME280;50449;51.528;5.076;2023-07-29T08:01:45;100658.56;;;22.72;52.17
64158;BME280;50449;51.528;5.076;2023-07-29T08:04:10;100649.66;;;22.75;52.31
64158;BME280;50449;51.528;5.076;2023-07-29T08:06:36;100650.13;;;22.77;52.07
64158;BME280;50449;51.528;5.076;2023-07-29T08:09:01;100654.19;;;22.79;51.98
64158;BME280;50449;51.528;5.076;2023-07-29T08:11:27;100649.97;;;22.82;52.43
64158;BME280;50449;51.528;5.076;2023-07-29T08:13:52;100656.75;;;22.84;51.94
64158;BME280;50449;51.528;5.076;2023-07-29T08:16:18;100660.00;;;22.86;52.30
64158;BME280;50449;51.528;5.076;2023-07-29T08:18:43;100657.72;;;22.88;52.09
64158;BME280;50449;51.528;5.076;2023-07-29T08:21:09;100657.06;;;22.92;52.25
64158;BME280;50449;51.528;5.076;2023-07-29T08:23:35;100652.03;;;22.94;52.31
64158;BME280;50449;51.528;5.076;2023-07-29T08:26:03;100645.88;;;22.97;51.87
64158;BME280;50449;51.528;5.076;2023-07-29T08:28:38;100651.91;;;22.99;52.35
64158;BME280;50449;51.528;5.076;2023-07-29T08:31:04;100646.88;;;23.01;52.20
64158;BME280;50449;51.528;5.076;2023-07-29T08:33:30;100657.22;;;23.04;52.02
64158;BME280;50449;51.528;5.076;2023-07-29T08:35:56;100646.69;;;23.06;52.15
64158;BME280;50449;51.528;5.076;2023-07-29T08:38:22;100643.28;;;23.09;52.28
64158;BME280;50449;51.528;5.076;2023-07-29T08:40:59;100635.50;;;23.11;52.53
64158;BME280;50449;51.528;5.076;2023-07-29T08:43:31;100643.09;;;23.14;52.50
64158;BME280;50449;51.528;5.076;2023-07-29T08:45:58;100647.44;;;23.15;52.27
64158;BME280;50449;51.528;5.076;2023-07-29T08:48:32;100645.97;;;23.18;52.41
64158;BME280;50449;51.528;5.076;2023-07-29T08:51:01;100647.28;;;23.20;52.43
64158;BME280;50449;51.528;5.076;2023-07-29T08:53:28;100651.31;;;23.23;52.44
64158;BME280;50449;51.528;5.076;2023-07-29T08:55:54;100645.47;;;23.24;52.13
64158;BME280;50449;51.528;5.076;2023-07-29T08:58:21;100647.56;;;23.27;52.58
64158;BME280;50449;51.528;5.076;2023-07-29T09:00:48;100642.53;;;23.29;52.42
64158;BME280;50449;51.528;5.076;2023-07-29T09:03:13;100653.38;;;23.35;52.39
64158;BME280;50449;51.528;5.076;2023-07-29T09:05:39;100645.59;;;23.37;52.30
64158;BME280;50449;51.528;5.076;2023-07-29T09:08:04;100647.69;;;23.40;52.36
64158;BME280;50449;51.528;5.076;2023-07-29T09:10:35;100646.22;;;23.42;52.57
64158;BME280;50449;51.528;5.076;2023-07-29T09:13:00;100645.53;;;23.45;52.56
64158;BME280;50449;51.528;5.076;2023-07-29T09:15:32;100650.06;;;23.50;52.19
64158;BME280;50449;51.528;5.076;2023-07-29T09:17:58;100649.38;;;23.53;51.96
64158;BME280;50449;51.528;5.076;2023-07-29T09:20:27;100648.41;;;23.58;51.95
64158;BME280;50449;51.528;5.076;2023-07-29T09:22:58;100645.44;;;23.63;51.90
64158;BME280;50449;51.528;5.076;2023-07-29T09:25:25;100645.59;;;23.66;52.45
64158;BME280;50449;51.528;5.076;2023-07-29T09:27:51;100649.28;;;23.70;52.44
64158;BME280;50449;51.528;5.076;2023-07-29T09:30:16;100645.56;;;23.75;52.06
64158;BME280;50449;51.528;5.076;2023-07-29T09:32:42;100650.88;;;23.80;52.09
64158;BME280;50449;51.528;5.076;2023-07-29T09:35:13;100650.69;;;23.85;52.03
64158;BME280;50449;51.528;5.076;2023-07-29T09:37:39;100640.25;;;23.91;52.34
64158;BME280;50449;51.528;5.076;2023-07-29T09:40:06;100641.22;;;23.95;52.10
64158;BME280;50449;51.528;5.076;2023-07-29T09:42:32;100638.59;;;23.98;52.16
64158;BME280;50449;51.528;5.076;2023-07-29T09:44:57;100634.81;;;24.03;52.02
64158;BME280;50449;51.528;5.076;2023-07-29T09:47:24;100632.22;;;24.07;51.92
64158;BME280;50449;51.528;5.076;2023-07-29T09:49:51;100638.34;;;24.12;51.99
64158;BME280;50449;51.528;5.076;2023-07-29T09:52:18;100634.56;;;24.17;52.21
64158;BME280;50449;51.528;5.076;2023-07-29T09:54:44;100642.66;;;24.22;52.37
64158;BME280;50449;51.528;5.076;2023-07-29T09:57:18;100632.53;;;24.26;51.95
64158;BME280;50449;51.528;5.076;2023-07-29T09:59:53;100636.72;;;24.32;51.88
64158;BME280;50449;51.528;5.076;2023-07-29T10:02:20;100638.47;;;24.37;52.00
64158;BME280;50449;51.528;5.076;2023-07-29T10:04:46;100637.41;;;24.41;52.24
64158;BME280;50449;51.528;5.076;2023-07-29T10:07:12;100633.69;;;24.46;51.64
64158;BME280;50449;51.528;5.076;2023-07-29T10:09:39;100627.13;;;24.51;52.01
64158;BME280;50449;51.528;5.076;2023-07-29T10:12:06;100634.41;;;24.55;51.95
64158;BME280;50449;51.528;5.076;2023-07-29T10:14:31;100634.53;;;24.59;51.93
64158;BME280;50449;51.528;5.076;2023-07-29T10:16:57;100629.63;;;24.65;51.53
64158;BME280;50449;51.528;5.076;2023-07-29T10:19:25;100634.94;;;24.70;51.82
64158;BME280;50449;51.528;5.076;2023-07-29T10:21:56;100620.91;;;24.75;51.59
64158;BME280;50449;51.528;5.076;2023-07-29T10:24:25;100617.09;;;24.79;51.54
64158;BME280;50449;51.528;5.076;2023-07-29T10:26:59;100623.22;;;24.85;51.33
64158;BME280;50449;51.528;5.076;2023-07-29T10:29:30;100626.09;;;24.89;51.70
64158;BME280;50449;51.528;5.076;2023-07-29T10:31:57;100611.25;;;24.93;51.30
64158;BME280;50449;51.528;5.076;2023-07-29T10:34:23;100619.66;;;24.97;51.13
64158;BME280;50449;51.528;5.076;2023-07-29T10:36:49;100623.34;;;25.01;51.18
64158;BME280;50449;51.528;5.076;2023-07-29T10:39:15;100618.75;;;25.05;50.92
64158;BME280;50449;51.528;5.076;2023-07-29T10:42:01;100614.94;;;25.10;51.07
64158;BME280;50449;51.528;5.076;2023-07-29T10:44:56;100620.25;;;25.15;50.64
64158;BME280;50449;51.528;5.076;2023-07-29T10:55:02;100620.75;;;25.29;50.87
64158;BME280;50449;51.528;5.076;2023-07-29T10:57:36;100612.59;;;25.33;50.51
64158;BME280;50449;51.528;5.076;2023-07-29T11:00:03;100612.69;;;25.36;50.58
64158;BME280;50449;51.528;5.076;2023-07-29T11:02:35;100615.56;;;25.40;50.51
64158;BME280;50449;51.528;5.076;2023-07-29T11:05:15;100623.19;;;25.43;50.88
64158;BME280;50449;51.528;5.076;2023-07-29T11:07:47;100622.47;;;25.46;50.61
64158;BME280;50449;51.528;5.076;2023-07-29T11:10:14;100620.97;;;25.48;50.69
64158;BME280;50449;51.528;5.076;2023-07-29T11:12:49;100645.19;;;25.52;50.64
64158;BME280;50449;51.528;5.076;2023-07-29T11:20:21;100637.81;;;25.56;50.83
64158;BME280;50449;51.528;5.076;2023-07-29T11:22:47;100641.84;;;25.58;50.70
64158;BME280;50449;51.528;5.076;2023-07-29T11:25:14;100627.66;;;25.60;50.62
64158;BME280;50449;51.528;5.076;2023-07-29T11:27:40;100629.75;;;25.63;50.93
64158;BME280;50449;51.528;5.076;2023-07-29T11:30:08;100625.81;;;25.64;51.10
64158;BME280;50449;51.528;5.076;2023-07-29T11:32:35;100631.81;;;25.66;51.08
64158;BME280;50449;51.528;5.076;2023-07-29T11:37:29;100630.78;;;25.71;51.22
64158;BME280;50449;51.528;5.076;2023-07-29T11:39:54;100645.03;;;25.73;51.18
64158;BME280;50449;51.528;5.076;2023-07-29T11:42:20;100644.69;;;25.74;51.63
64158;BME280;50449;51.528;5.076;2023-07-29T11:44:45;100641.59;;;25.76;51.12
64158;BME280;50449;51.528;5.076;2023-07-29T11:47:12;100624.63;;;25.77;51.30
64158;BME280;50449;51.528;5.076;2023-07-29T11:49:38;100611.25;;;25.79;51.55
64158;BME280;50449;51.528;5.076;2023-07-29T11:52:06;100614.81;;;25.80;51.31
64158;BME280;50449;51.528;5.076;2023-07-29T11:54:32;100635.81;;;25.81;51.24
64158;BME280;50449;51.528;5.076;2023-07-29T11:56:58;100667.84;;;25.82;51.36
64158;BME280;50449;51.528;5.076;2023-07-29T11:59:23;100728.41;;;25.83;51.20
64158;BME280;50449;51.528;5.076;2023-07-29T12:01:49;100662.00;;;25.83;51.45
64158;BME280;50449;51.528;5.076;2023-07-29T12:04:15;100647.31;;;25.83;51.15
64158;BME280;50449;51.528;5.076;2023-07-29T12:06:41;100652.84;;;25.83;51.32
64158;BME280;50449;51.528;5.076;2023-07-29T12:09:07;100672.72;;;25.85;50.81
64158;BME280;50449;51.528;5.076;2023-07-29T12:11:34;100696.78;;;25.84;51.38
64158;BME280;50449;51.528;5.076;2023-07-29T12:14:00;100710.63;;;25.84;51.27
64158;BME280;50449;51.528;5.076;2023-07-29T12:16:25;100695.66;;;25.85;51.29
64158;BME280;50449;51.528;5.076;2023-07-29T12:18:51;100678.25;;;25.85;51.30
64158;BME280;50449;51.528;5.076;2023-07-29T12:21:18;100667.97;;;25.85;51.01
64158;BME280;50449;51.528;5.076;2023-07-29T12:23:44;100672.72;;;25.85;51.18
64158;BME280;50449;51.528;5.076;2023-07-29T12:26:09;100667.19;;;25.85;51.34
64158;BME280;50449;51.528;5.076;2023-07-29T12:28:34;100683.28;;;25.83;51.04
64158;BME280;50449;51.528;5.076;2023-07-29T12:31:00;100676.97;;;25.82;51.30
64158;BME280;50449;51.528;5.076;2023-07-29T12:33:35;100683.66;;;25.81;51.34
64158;BME280;50449;51.528;5.076;2023-07-29T12:36:02;100682.84;;;25.81;51.13
64158;BME280;50449;51.528;5.076;2023-07-29T12:38:28;100681.59;;;25.78;51.33
64158;BME280;50449;51.528;5.076;2023-07-29T12:40:54;100676.06;;;25.78;51.36
64158;BME280;50449;51.528;5.076;2023-07-29T12:43:20;100672.81;;;25.76;51.41
64158;BME280;50449;51.528;5.076;2023-07-29T12:45:45;100666.84;;;25.74;51.53
64158;BME280;50449;51.528;5.076;2023-07-29T12:48:11;100665.22;;;25.73;51.55
64158;BME280;50449;51.528;5.076;2023-07-29T12:50:37;100656.94;;;25.73;51.76
64158;BME280;50449;51.528;5.076;2023-07-29T12:53:04;100654.50;;;25.72;51.63
64158;BME280;50449;51.528;5.076;2023-07-29T12:55:30;100659.22;;;25.71;52.12
64158;BME280;50449;51.528;5.076;2023-07-29T12:57:55;100654.84;;;25.70;51.95
64158;BME280;50449;51.528;5.076;2023-07-29T13:00:21;100653.22;;;25.69;51.92
64158;BME280;50449;51.528;5.076;2023-07-29T13:02:46;100652.44;;;25.68;51.71
64158;BME280;50449;51.528;5.076;2023-07-29T13:05:12;100648.88;;;25.68;52.28